Ana Sayfa
METAR-TAF:

METAR-TAF

Havaalanları :

Kozani, Yunanistan

Enlem: 40-18N, Boylam: 021-47E, yükseklik: 634 m

Güncel hava durumu gözlemi

Rapor saat 19:20 UTC de 27 dakika önce yapıldı.
Sakin rüzgar
Sıcaklık 12°C
Nem 82%
Basınç 1013 hPa

METAR: LGKZ 311920Z AUTO 00000KT //// // ////// 12/09 Q1013 RE//

Saat: 22:47 (19:47 UTC)


TAF: eksik

4.000'den fazla havaalanı için hava durumu gözlemleri ve tahminleri (METAR ve TAF raporları).

Kullanılabilir istasyonlar harita üzerinde sarı ve kırmızı noktalarla gösterilir.

İstasyonun adını görmek için fareyi noktanın üzerinde gezdirin.

Sonrasında hava gözlem ve tahminlerini görmek için tıklayın.

Haritayı değiştirmek için: yaklaştırmak için siyah artı işaretli yeşil düğmeye ve uzaklaştırmak için de eksi işaretli düğmeye hızla tıklayın; bitişik haritalar için yeşil okları kullanın.


METAR-TAF: